KOGB/OGB METAR and TAF weather

Enter ICAO airport designator
Station Type Date Time Source
KOGB METAR 2023/01/29 19:53 UTC NOAA

KOGB 291953Z AUTO 04004KT 3SM -RA BR BKN022 OVC028 11/09 A3021 RMK AO2 SLP231 P0005 T01060094 $


Station Type Date Time Source
KOGB Decoded METAR 2023/01/29 19:53 UTC NOAA

ORANGEBURG MUNICIPAL AIRPORT, SC, United States (KOGB) 33-28N 080-51W 59M
Jan 29, 2023 - 02:53 PM EST / 2023.01.29 1953 UTC
Wind: from the NE (040 degrees) at 5 MPH (4 KT):0
Visibility: 3 mile(s):0
Sky conditions: overcast
Weather: light rain; mist
Precipitation last hour: 0.05 inches
Temperature: 51.1 F (10.6 C)
Dew Point: 48.9 F (9.4 C)
Relative Humidity: 92%
Pressure (altimeter): 30.21 in. Hg (1023 hPa)
ob: KOGB 291953Z AUTO 04004KT 3SM -RA BR BKN022 OVC028 11/09 A3021 RMK AO2 SLP231 P0005 T01060094
cycle: 20

Station Type Date Time Source
KOGB TAF 2023/01/29 20:06 UTC NOAA

TAF
AMD KOGB 292004Z 2920/3018 20005KT 6SM -RA BR BKN030
TEMPO 2920/2923 3SM RA BR OVC020
FM300300 VRB03KT 3SM RA BR OVC007
FM300800 00000KT 2SM RA BR OVC003

Example: see airport list